Skip Navigation LinksHome page > Weather > Current weather Skip Navigation Links

Current Weather

Indira Gandhi Intl Apt, New Delhi, India

For information only: do not use for flight planning or navigation.
Latest weather
Observation time Thursday, June 21, 2018 5:30 AM IST
Local time Thursday, June 21, 2018 5:43 AM IST
Flight conditions Instrument Meteorological Conditions
Winds
Wind direction Northwest (310°)
Wind speed 8 mph
Visibility 1.6 mi.
Present weather haze
Sky condition
Ceiling 3,000 ft. broken clouds
Cloud layer broken clouds 3,000 ft.
Cloud layer few clouds with cumulonimbus 3,500 ft.
Cloud layer overcast 8,000 ft.
Temperature 91°F
Dewpoint 70°F
Altimeter 29.59 in.Hg
Derived measurements
Relative humidity 49%
Heat index 97°F
Density altitude 3529 ft.
Remarks
Corrected report.
No significant changes expected in the next two hours.
METAR COR VIDP 210000Z 31007KT 2500 HZ BKN030 FEW035CB OVC080 33/21 Q1002 NOSIG

Settings

Location code

InnerDrive.Weather 4.0.6615.0 Release CLR 4.0.30319.42000
Copyright ©2018 Inner Drive Technology. All rights reserved. Portions Copyright ©1986-2018 David Braverman.

Find weather

Site navigation


Skip Navigation Links

Place info

Page info

PayPal - The safer, easier way to pay online!

Return home.

Copyright ©2018 Inner Drive Technology. Purveyors of fine, hand-crafted computer software. Page printed 2018-06-21T00:13:39 UTC.